METAR Formatted Surface Weather Observation
Issued by NWS

Home | Current Version | Previous Version | Text Only | Print | Product List | Glossary On
Versions: 1 2 3 4 5 6 7 8 9 10 11 12 13 14 15 16 17 18 19 20 21 22 23 24 25 26 27 28
182
SAUS46 KMTR 232053
MTRBAN
METAR KBAN 232052Z AUTO 26009G17KT 240V300 10SM CLR 11/M16 A3019 RMK
AO2 SLP221 T01061156 58019 $



USA.gov is the U.S. government's official web portal to all federal, state and local government web resources and services.